sensor_id;sensor_type;location;lat;lon;timestamp;temperature;humidity
78448;SHT31;67742;51.972;5.682;2023-08-17T00:02:20;21.6;59.1
78448;SHT31;67742;51.972;5.682;2023-08-17T00:04:48;21.6;59.0
78448;SHT31;67742;51.972;5.682;2023-08-17T00:07:17;21.6;59.0
78448;SHT31;67742;51.972;5.682;2023-08-17T00:09:46;21.6;58.8
78448;SHT31;67742;51.972;5.682;2023-08-17T00:12:14;21.6;58.9
78448;SHT31;67742;51.972;5.682;2023-08-17T00:14:43;21.6;59.0
78448;SHT31;67742;51.972;5.682;2023-08-17T00:17:11;21.6;58.6
78448;SHT31;67742;51.972;5.682;2023-08-17T00:19:40;21.6;58.5
78448;SHT31;67742;51.972;5.682;2023-08-17T00:22:09;21.6;58.5
78448;SHT31;67742;51.972;5.682;2023-08-17T00:24:38;21.6;58.6
78448;SHT31;67742;51.972;5.682;2023-08-17T00:27:08;21.5;58.6
78448;SHT31;67742;51.972;5.682;2023-08-17T00:29:37;21.5;58.6
78448;SHT31;67742;51.972;5.682;2023-08-17T00:32:06;21.5;58.7
78448;SHT31;67742;51.972;5.682;2023-08-17T00:34:37;21.5;58.7
78448;SHT31;67742;51.972;5.682;2023-08-17T00:37:05;21.5;58.7
78448;SHT31;67742;51.972;5.682;2023-08-17T00:39:34;21.5;58.7
78448;SHT31;67742;51.972;5.682;2023-08-17T00:42:03;21.5;58.8
78448;SHT31;67742;51.972;5.682;2023-08-17T00:44:31;21.4;58.7
78448;SHT31;67742;51.972;5.682;2023-08-17T00:47:00;21.4;58.6
78448;SHT31;67742;51.972;5.682;2023-08-17T00:49:31;21.4;58.8
78448;SHT31;67742;51.972;5.682;2023-08-17T00:52:01;21.4;58.9
78448;SHT31;67742;51.972;5.682;2023-08-17T00:54:33;21.4;59.0
78448;SHT31;67742;51.972;5.682;2023-08-17T00:57:05;21.3;59.1
78448;SHT31;67742;51.972;5.682;2023-08-17T00:59:35;21.3;59.1
78448;SHT31;67742;51.972;5.682;2023-08-17T01:02:05;21.3;59.1
78448;SHT31;67742;51.972;5.682;2023-08-17T01:04:35;21.3;58.8
78448;SHT31;67742;51.972;5.682;2023-08-17T01:07:03;21.2;59.2
78448;SHT31;67742;51.972;5.682;2023-08-17T01:09:34;21.2;59.3
78448;SHT31;67742;51.972;5.682;2023-08-17T01:12:11;21.2;59.3
78448;SHT31;67742;51.972;5.682;2023-08-17T01:14:52;21.2;59.3
78448;SHT31;67742;51.972;5.682;2023-08-17T01:17:28;21.2;59.5
78448;SHT31;67742;51.972;5.682;2023-08-17T01:19:58;21.2;59.7
78448;SHT31;67742;51.972;5.682;2023-08-17T01:22:30;21.2;59.9
78448;SHT31;67742;51.972;5.682;2023-08-17T01:25:02;21.1;60.0
78448;SHT31;67742;51.972;5.682;2023-08-17T01:27:37;21.1;59.9
78448;SHT31;67742;51.972;5.682;2023-08-17T01:30:07;21.1;60.1
78448;SHT31;67742;51.972;5.682;2023-08-17T01:32:39;21.1;60.2
78448;SHT31;67742;51.972;5.682;2023-08-17T01:35:18;21.1;60.1
78448;SHT31;67742;51.972;5.682;2023-08-17T01:37:50;21.1;60.3
78448;SHT31;67742;51.972;5.682;2023-08-17T01:40:23;21.1;60.3
78448;SHT31;67742;51.972;5.682;2023-08-17T01:42:54;21.1;60.6
78448;SHT31;67742;51.972;5.682;2023-08-17T01:45:23;21.1;61.0
78448;SHT31;67742;51.972;5.682;2023-08-17T01:47:52;21.1;61.6
78448;SHT31;67742;51.972;5.682;2023-08-17T01:50:21;21.1;61.7
78448;SHT31;67742;51.972;5.682;2023-08-17T01:52:49;21.1;62.2
78448;SHT31;67742;51.972;5.682;2023-08-17T01:55:21;21.1;62.4
78448;SHT31;67742;51.972;5.682;2023-08-17T01:57:50;21.1;62.4
78448;SHT31;67742;51.972;5.682;2023-08-17T02:00:19;21.1;62.2
78448;SHT31;67742;51.972;5.682;2023-08-17T02:02:47;21.1;62.4
78448;SHT31;67742;51.972;5.682;2023-08-17T02:05:16;21.1;62.6
78448;SHT31;67742;51.972;5.682;2023-08-17T02:07:45;21.0;62.5
78448;SHT31;67742;51.972;5.682;2023-08-17T02:10:13;21.0;62.3
78448;SHT31;67742;51.972;5.682;2023-08-17T02:12:42;21.0;62.4
78448;SHT31;67742;51.972;5.682;2023-08-17T02:15:11;21.0;62.2
78448;SHT31;67742;51.972;5.682;2023-08-17T02:17:39;21.0;61.9
78448;SHT31;67742;51.972;5.682;2023-08-17T02:20:09;20.9;62.4
78448;SHT31;67742;51.972;5.682;2023-08-17T02:22:40;20.9;62.8
78448;SHT31;67742;51.972;5.682;2023-08-17T02:25:09;20.9;62.8
78448;SHT31;67742;51.972;5.682;2023-08-17T02:27:38;20.8;62.6
78448;SHT31;67742;51.972;5.682;2023-08-17T02:30:07;20.8;62.7
78448;SHT31;67742;51.972;5.682;2023-08-17T02:32:36;20.8;62.9
78448;SHT31;67742;51.972;5.682;2023-08-17T02:35:07;20.8;62.9
78448;SHT31;67742;51.972;5.682;2023-08-17T02:37:36;20.8;62.8
78448;SHT31;67742;51.972;5.682;2023-08-17T02:40:05;20.7;62.7
78448;SHT31;67742;51.972;5.682;2023-08-17T02:42:34;20.7;62.8
78448;SHT31;67742;51.972;5.682;2023-08-17T02:45:03;20.7;62.9
78448;SHT31;67742;51.972;5.682;2023-08-17T02:47:32;20.7;63.2
78448;SHT31;67742;51.972;5.682;2023-08-17T02:50:01;20.7;62.8
78448;SHT31;67742;51.972;5.682;2023-08-17T02:52:30;20.7;63.0
78448;SHT31;67742;51.972;5.682;2023-08-17T02:54:58;20.7;63.4
78448;SHT31;67742;51.972;5.682;2023-08-17T02:57:27;20.7;62.8
78448;SHT31;67742;51.972;5.682;2023-08-17T02:59:55;20.7;62.7
78448;SHT31;67742;51.972;5.682;2023-08-17T03:02:24;20.7;62.6
78448;SHT31;67742;51.972;5.682;2023-08-17T03:04:52;20.7;62.6
78448;SHT31;67742;51.972;5.682;2023-08-17T03:07:21;20.6;62.5
78448;SHT31;67742;51.972;5.682;2023-08-17T03:09:49;20.6;62.8
78448;SHT31;67742;51.972;5.682;2023-08-17T03:12:18;20.6;62.7
78448;SHT31;67742;51.972;5.682;2023-08-17T03:14:46;20.6;62.4
78448;SHT31;67742;51.972;5.682;2023-08-17T03:17:15;20.5;62.4
78448;SHT31;67742;51.972;5.682;2023-08-17T03:19:43;20.5;62.5
78448;SHT31;67742;51.972;5.682;2023-08-17T03:22:12;20.5;62.8
78448;SHT31;67742;51.972;5.682;2023-08-17T03:24:40;20.5;62.9
78448;SHT31;67742;51.972;5.682;2023-08-17T03:27:09;20.5;62.8
78448;SHT31;67742;51.972;5.682;2023-08-17T03:29:37;20.5;62.7
78448;SHT31;67742;51.972;5.682;2023-08-17T03:32:07;20.5;62.7
78448;SHT31;67742;51.972;5.682;2023-08-17T03:34:35;20.5;62.5
78448;SHT31;67742;51.972;5.682;2023-08-17T03:37:05;20.5;62.4
78448;SHT31;67742;51.972;5.682;2023-08-17T03:39:34;20.5;62.5
78448;SHT31;67742;51.972;5.682;2023-08-17T03:42:03;20.5;62.5
78448;SHT31;67742;51.972;5.682;2023-08-17T03:44:31;20.5;62.3
78448;SHT31;67742;51.972;5.682;2023-08-17T03:47:00;20.5;62.3
78448;SHT31;67742;51.972;5.682;2023-08-17T03:49:29;20.4;62.2
78448;SHT31;67742;51.972;5.682;2023-08-17T03:51:59;20.4;62.3
78448;SHT31;67742;51.972;5.682;2023-08-17T03:54:28;20.4;62.1
78448;SHT31;67742;51.972;5.682;2023-08-17T03:56:56;20.4;62.2
78448;SHT31;67742;51.972;5.682;2023-08-17T03:59:25;20.3;62.4
78448;SHT31;67742;51.972;5.682;2023-08-17T04:01:53;20.3;62.5
78448;SHT31;67742;51.972;5.682;2023-08-17T04:04:22;20.3;62.5
78448;SHT31;67742;51.972;5.682;2023-08-17T04:06:51;20.3;62.5
78448;SHT31;67742;51.972;5.682;2023-08-17T04:09:19;20.2;62.6
78448;SHT31;67742;51.972;5.682;2023-08-17T04:11:48;20.2;62.6
78448;SHT31;67742;51.972;5.682;2023-08-17T04:14:17;20.2;62.7
78448;SHT31;67742;51.972;5.682;2023-08-17T04:16:45;20.2;62.4
78448;SHT31;67742;51.972;5.682;2023-08-17T04:19:15;20.1;62.5
78448;SHT31;67742;51.972;5.682;2023-08-17T04:21:44;20.1;62.5
78448;SHT31;67742;51.972;5.682;2023-08-17T04:24:12;20.1;62.6
78448;SHT31;67742;51.972;5.682;2023-08-17T04:26:41;20.1;62.6
78448;SHT31;67742;51.972;5.682;2023-08-17T04:29:09;20.0;62.8
78448;SHT31;67742;51.972;5.682;2023-08-17T04:31:38;20.0;62.9
78448;SHT31;67742;51.972;5.682;2023-08-17T04:34:07;20.0;62.9
78448;SHT31;67742;51.972;5.682;2023-08-17T04:36:36;20.0;63.1
78448;SHT31;67742;51.972;5.682;2023-08-17T04:39:05;19.9;63.2
78448;SHT31;67742;51.972;5.682;2023-08-17T04:41:36;19.9;63.2
78448;SHT31;67742;51.972;5.682;2023-08-17T04:44:05;19.9;63.3
78448;SHT31;67742;51.972;5.682;2023-08-17T04:46:35;19.9;63.5
78448;SHT31;67742;51.972;5.682;2023-08-17T04:49:04;19.9;63.5
78448;SHT31;67742;51.972;5.682;2023-08-17T04:51:35;19.8;63.7
78448;SHT31;67742;51.972;5.682;2023-08-17T04:54:03;19.8;63.7
78448;SHT31;67742;51.972;5.682;2023-08-17T04:56:32;19.8;63.7
78448;SHT31;67742;51.972;5.682;2023-08-17T04:59:00;19.8;63.9
78448;SHT31;67742;51.972;5.682;2023-08-17T05:01:29;19.8;64.3
78448;SHT31;67742;51.972;5.682;2023-08-17T05:03:58;19.8;64.2
78448;SHT31;67742;51.972;5.682;2023-08-17T05:06:27;19.8;64.2
78448;SHT31;67742;51.972;5.682;2023-08-17T05:08:57;19.8;63.9
78448;SHT31;67742;51.972;5.682;2023-08-17T05:11:26;19.8;63.8
78448;SHT31;67742;51.972;5.682;2023-08-17T05:13:54;19.8;63.9
78448;SHT31;67742;51.972;5.682;2023-08-17T05:16:23;19.8;64.0
78448;SHT31;67742;51.972;5.682;2023-08-17T05:18:51;19.8;64.2
78448;SHT31;67742;51.972;5.682;2023-08-17T05:21:20;19.8;64.6
78448;SHT31;67742;51.972;5.682;2023-08-17T05:23:48;19.8;64.3
78448;SHT31;67742;51.972;5.682;2023-08-17T05:26:17;19.8;64.2
78448;SHT31;67742;51.972;5.682;2023-08-17T05:28:46;19.8;64.2
78448;SHT31;67742;51.972;5.682;2023-08-17T05:31:14;19.8;64.1
78448;SHT31;67742;51.972;5.682;2023-08-17T05:33:43;19.8;64.3
78448;SHT31;67742;51.972;5.682;2023-08-17T05:36:14;19.8;64.5
78448;SHT31;67742;51.972;5.682;2023-08-17T05:38:42;19.8;64.5
78448;SHT31;67742;51.972;5.682;2023-08-17T05:41:11;19.8;64.3
78448;SHT31;67742;51.972;5.682;2023-08-17T05:43:40;19.8;64.4
78448;SHT31;67742;51.972;5.682;2023-08-17T05:46:08;19.8;64.4
78448;SHT31;67742;51.972;5.682;2023-08-17T05:48:39;19.8;64.6
78448;SHT31;67742;51.972;5.682;2023-08-17T05:51:08;19.8;64.5
78448;SHT31;67742;51.972;5.682;2023-08-17T05:53:36;19.8;64.4
78448;SHT31;67742;51.972;5.682;2023-08-17T05:56:05;19.9;64.4
78448;SHT31;67742;51.972;5.682;2023-08-17T05:58:34;19.9;64.6
78448;SHT31;67742;51.972;5.682;2023-08-17T06:01:09;19.9;64.4
78448;SHT31;67742;51.972;5.682;2023-08-17T06:03:38;19.9;64.6
78448;SHT31;67742;51.972;5.682;2023-08-17T06:06:09;19.9;64.8
78448;SHT31;67742;51.972;5.682;2023-08-17T06:08:38;19.9;64.6
78448;SHT31;67742;51.972;5.682;2023-08-17T06:11:06;19.9;64.6
78448;SHT31;67742;51.972;5.682;2023-08-17T06:13:35;19.9;64.7
78448;SHT31;67742;51.972;5.682;2023-08-17T06:16:04;19.9;64.4
78448;SHT31;67742;51.972;5.682;2023-08-17T06:18:32;20.0;64.8
78448;SHT31;67742;51.972;5.682;2023-08-17T06:21:01;20.0;65.0
78448;SHT31;67742;51.972;5.682;2023-08-17T06:23:30;20.0;65.4
78448;SHT31;67742;51.972;5.682;2023-08-17T06:25:59;20.0;65.3
78448;SHT31;67742;51.972;5.682;2023-08-17T06:28:29;20.0;65.1
78448;SHT31;67742;51.972;5.682;2023-08-17T06:30:57;20.0;65.0
78448;SHT31;67742;51.972;5.682;2023-08-17T06:33:26;20.1;65.0
78448;SHT31;67742;51.972;5.682;2023-08-17T06:35:54;20.1;65.9
78448;SHT31;67742;51.972;5.682;2023-08-17T06:38:23;20.1;65.6
78448;SHT31;67742;51.972;5.682;2023-08-17T06:40:52;20.2;65.1
78448;SHT31;67742;51.972;5.682;2023-08-17T06:43:23;20.2;65.1
78448;SHT31;67742;51.972;5.682;2023-08-17T06:45:51;20.2;65.3
78448;SHT31;67742;51.972;5.682;2023-08-17T06:48:19;20.3;65.1
78448;SHT31;67742;51.972;5.682;2023-08-17T06:50:48;20.3;64.8
78448;SHT31;67742;51.972;5.682;2023-08-17T06:53:16;20.3;64.9
78448;SHT31;67742;51.972;5.682;2023-08-17T06:55:46;20.4;65.0
78448;SHT31;67742;51.972;5.682;2023-08-17T06:58:16;20.4;65.1
78448;SHT31;67742;51.972;5.682;2023-08-17T07:00:45;20.5;65.2
78448;SHT31;67742;51.972;5.682;2023-08-17T07:03:14;20.5;65.3
78448;SHT31;67742;51.972;5.682;2023-08-17T07:05:43;20.6;64.9
78448;SHT31;67742;51.972;5.682;2023-08-17T07:08:12;20.6;64.7
78448;SHT31;67742;51.972;5.682;2023-08-17T07:10:40;20.6;64.6
78448;SHT31;67742;51.972;5.682;2023-08-17T07:13:09;20.7;64.4
78448;SHT31;67742;51.972;5.682;2023-08-17T07:15:37;20.7;64.3
78448;SHT31;67742;51.972;5.682;2023-08-17T07:18:06;20.8;64.3
78448;SHT31;67742;51.972;5.682;2023-08-17T07:20:35;20.8;64.1
78448;SHT31;67742;51.972;5.682;2023-08-17T07:23:04;20.9;63.7
78448;SHT31;67742;51.972;5.682;2023-08-17T07:25:32;20.9;64.0
78448;SHT31;67742;51.972;5.682;2023-08-17T07:28:01;20.9;64.2
78448;SHT31;67742;51.972;5.682;2023-08-17T07:30:29;21.0;63.8
78448;SHT31;67742;51.972;5.682;2023-08-17T07:32:58;21.0;64.2
78448;SHT31;67742;51.972;5.682;2023-08-17T07:35:26;21.1;63.9
78448;SHT31;67742;51.972;5.682;2023-08-17T07:37:55;21.1;64.2
78448;SHT31;67742;51.972;5.682;2023-08-17T07:40:23;21.1;63.7
78448;SHT31;67742;51.972;5.682;2023-08-17T07:42:52;21.2;63.5
78448;SHT31;67742;51.972;5.682;2023-08-17T07:45:20;21.2;63.9
78448;SHT31;67742;51.972;5.682;2023-08-17T07:47:49;21.2;64.1
78448;SHT31;67742;51.972;5.682;2023-08-17T07:50:19;21.3;64.0
78448;SHT31;67742;51.972;5.682;2023-08-17T07:52:48;21.3;63.9
78448;SHT31;67742;51.972;5.682;2023-08-17T07:55:17;21.3;63.9
78448;SHT31;67742;51.972;5.682;2023-08-17T07:57:45;21.4;63.4
78448;SHT31;67742;51.972;5.682;2023-08-17T08:00:15;21.4;63.2
78448;SHT31;67742;51.972;5.682;2023-08-17T08:02:44;21.4;63.5
78448;SHT31;67742;51.972;5.682;2023-08-17T08:05:12;21.5;63.8
78448;SHT31;67742;51.972;5.682;2023-08-17T08:07:41;21.5;63.7
78448;SHT31;67742;51.972;5.682;2023-08-17T08:10:10;21.6;63.2
78448;SHT31;67742;51.972;5.682;2023-08-17T08:12:39;21.6;63.5
78448;SHT31;67742;51.972;5.682;2023-08-17T08:15:09;21.7;63.7
78448;SHT31;67742;51.972;5.682;2023-08-17T08:17:38;21.7;64.1
78448;SHT31;67742;51.972;5.682;2023-08-17T08:20:10;21.8;63.4
78448;SHT31;67742;51.972;5.682;2023-08-17T08:22:39;21.8;62.7
78448;SHT31;67742;51.972;5.682;2023-08-17T08:25:08;21.9;62.8
78448;SHT31;67742;51.972;5.682;2023-08-17T08:27:37;22.0;62.5
78448;SHT31;67742;51.972;5.682;2023-08-17T08:30:06;22.0;62.6
78448;SHT31;67742;51.972;5.682;2023-08-17T08:32:35;22.1;62.5
78448;SHT31;67742;51.972;5.682;2023-08-17T08:35:06;22.2;62.3
78448;SHT31;67742;51.972;5.682;2023-08-17T08:37:35;22.2;61.8
78448;SHT31;67742;51.972;5.682;2023-08-17T08:40:04;22.3;61.9
78448;SHT31;67742;51.972;5.682;2023-08-17T08:42:34;22.4;61.2
78448;SHT31;67742;51.972;5.682;2023-08-17T08:45:03;22.4;61.1
78448;SHT31;67742;51.972;5.682;2023-08-17T08:47:34;22.5;61.0
78448;SHT31;67742;51.972;5.682;2023-08-17T08:50:05;22.5;61.2
78448;SHT31;67742;51.972;5.682;2023-08-17T08:52:35;22.6;60.8
78448;SHT31;67742;51.972;5.682;2023-08-17T08:55:10;22.6;60.5
78448;SHT31;67742;51.972;5.682;2023-08-17T08:57:41;22.6;60.3
78448;SHT31;67742;51.972;5.682;2023-08-17T09:00:12;22.7;60.0
78448;SHT31;67742;51.972;5.682;2023-08-17T09:02:42;22.7;59.3
78448;SHT31;67742;51.972;5.682;2023-08-17T09:05:12;22.7;59.9
78448;SHT31;67742;51.972;5.682;2023-08-17T09:07:43;22.7;59.5
78448;SHT31;67742;51.972;5.682;2023-08-17T09:10:12;22.7;59.8
78448;SHT31;67742;51.972;5.682;2023-08-17T09:12:45;22.8;59.6
78448;SHT31;67742;51.972;5.682;2023-08-17T09:15:16;22.8;59.4
78448;SHT31;67742;51.972;5.682;2023-08-17T09:17:45;22.8;59.6
78448;SHT31;67742;51.972;5.682;2023-08-17T09:20:37;22.8;59.9
78448;SHT31;67742;51.972;5.682;2023-08-17T09:23:15;22.8;60.0
78448;SHT31;67742;51.972;5.682;2023-08-17T09:25:47;22.8;59.6
78448;SHT31;67742;51.972;5.682;2023-08-17T09:28:18;22.9;60.1
78448;SHT31;67742;51.972;5.682;2023-08-17T09:30:57;22.9;59.8
78448;SHT31;67742;51.972;5.682;2023-08-17T09:33:28;22.9;59.4
78448;SHT31;67742;51.972;5.682;2023-08-17T09:35:59;22.9;59.6
78448;SHT31;67742;51.972;5.682;2023-08-17T09:38:28;22.9;59.5
78448;SHT31;67742;51.972;5.682;2023-08-17T09:40:58;22.9;59.4
78448;SHT31;67742;51.972;5.682;2023-08-17T09:43:29;22.9;59.4
78448;SHT31;67742;51.972;5.682;2023-08-17T09:46:01;22.9;59.5
78448;SHT31;67742;51.972;5.682;2023-08-17T09:48:32;22.9;59.5
78448;SHT31;67742;51.972;5.682;2023-08-17T09:51:01;22.9;59.6
78448;SHT31;67742;51.972;5.682;2023-08-17T09:53:35;23.0;59.4
78448;SHT31;67742;51.972;5.682;2023-08-17T09:56:06;23.0;59.6
78448;SHT31;67742;51.972;5.682;2023-08-17T09:58:38;23.0;60.0
78448;SHT31;67742;51.972;5.682;2023-08-17T10:01:09;23.0;59.8
78448;SHT31;67742;51.972;5.682;2023-08-17T10:03:43;23.0;59.8
78448;SHT31;67742;51.972;5.682;2023-08-17T10:06:20;23.0;59.8
78448;SHT31;67742;51.972;5.682;2023-08-17T10:08:53;23.1;60.2
78448;SHT31;67742;51.972;5.682;2023-08-17T10:11:24;23.1;59.9
78448;SHT31;67742;51.972;5.682;2023-08-17T10:13:59;23.1;59.6
78448;SHT31;67742;51.972;5.682;2023-08-17T10:16:35;23.1;59.2
78448;SHT31;67742;51.972;5.682;2023-08-17T10:19:13;23.2;59.1
78448;SHT31;67742;51.972;5.682;2023-08-17T10:22:02;23.2;59.1
78448;SHT31;67742;51.972;5.682;2023-08-17T10:24:24;23.2;59.6
78448;SHT31;67742;51.972;5.682;2023-08-17T10:26:54;23.2;59.4
78448;SHT31;67742;51.972;5.682;2023-08-17T10:29:24;23.2;59.2
78448;SHT31;67742;51.972;5.682;2023-08-17T10:31:53;23.3;59.7
78448;SHT31;67742;51.972;5.682;2023-08-17T10:34:22;23.3;59.5
78448;SHT31;67742;51.972;5.682;2023-08-17T10:36:52;23.3;59.6
78448;SHT31;67742;51.972;5.682;2023-08-17T10:39:26;23.3;58.9
78448;SHT31;67742;51.972;5.682;2023-08-17T10:41:56;23.4;59.3
78448;SHT31;67742;51.972;5.682;2023-08-17T10:44:42;23.4;59.4
78448;SHT31;67742;51.972;5.682;2023-08-17T10:47:22;23.4;59.6
78448;SHT31;67742;51.972;5.682;2023-08-17T10:49:55;23.4;59.7
78448;SHT31;67742;51.972;5.682;2023-08-17T10:52:29;23.5;60.1
78448;SHT31;67742;51.972;5.682;2023-08-17T10:55:01;23.5;60.1
78448;SHT31;67742;51.972;5.682;2023-08-17T10:57:35;23.5;59.7
78448;SHT31;67742;51.972;5.682;2023-08-17T11:00:16;23.6;59.6
78448;SHT31;67742;51.972;5.682;2023-08-17T11:02:54;23.6;58.7
78448;SHT31;67742;51.972;5.682;2023-08-17T11:05:39;23.6;59.1
78448;SHT31;67742;51.972;5.682;2023-08-17T11:08:11;23.7;58.6
78448;SHT31;67742;51.972;5.682;2023-08-17T11:10:47;23.7;58.7
78448;SHT31;67742;51.972;5.682;2023-08-17T11:13:17;23.7;58.1
78448;SHT31;67742;51.972;5.682;2023-08-17T11:15:46;23.8;58.5
78448;SHT31;67742;51.972;5.682;2023-08-17T11:18:15;23.8;57.8
78448;SHT31;67742;51.972;5.682;2023-08-17T11:20:44;23.9;58.0
78448;SHT31;67742;51.972;5.682;2023-08-17T11:23:15;23.9;58.3
78448;SHT31;67742;51.972;5.682;2023-08-17T11:25:44;23.9;58.7
78448;SHT31;67742;51.972;5.682;2023-08-17T11:28:13;23.9;58.7
78448;SHT31;67742;51.972;5.682;2023-08-17T11:30:43;24.0;58.8
78448;SHT31;67742;51.972;5.682;2023-08-17T11:33:12;24.0;58.7
78448;SHT31;67742;51.972;5.682;2023-08-17T11:35:41;24.0;59.0
78448;SHT31;67742;51.972;5.682;2023-08-17T11:38:10;24.1;58.6
78448;SHT31;67742;51.972;5.682;2023-08-17T11:40:39;24.1;58.3
78448;SHT31;67742;51.972;5.682;2023-08-17T11:43:08;24.1;58.6
78448;SHT31;67742;51.972;5.682;2023-08-17T11:45:37;24.2;57.8
78448;SHT31;67742;51.972;5.682;2023-08-17T11:48:08;24.2;57.9
78448;SHT31;67742;51.972;5.682;2023-08-17T11:50:38;24.2;57.9
78448;SHT31;67742;51.972;5.682;2023-08-17T11:53:06;24.3;57.5
78448;SHT31;67742;51.972;5.682;2023-08-17T11:55:35;24.3;57.2
78448;SHT31;67742;51.972;5.682;2023-08-17T11:58:04;24.3;57.0
78448;SHT31;67742;51.972;5.682;2023-08-17T12:00:39;24.3;57.0
78448;SHT31;67742;51.972;5.682;2023-08-17T12:03:08;24.4;57.1
78448;SHT31;67742;51.972;5.682;2023-08-17T12:05:42;24.4;57.1
78448;SHT31;67742;51.972;5.682;2023-08-17T12:08:13;24.4;57.0
78448;SHT31;67742;51.972;5.682;2023-08-17T12:10:44;24.4;57.3
78448;SHT31;67742;51.972;5.682;2023-08-17T12:13:13;24.4;57.3
78448;SHT31;67742;51.972;5.682;2023-08-17T12:15:42;24.4;57.3
78448;SHT31;67742;51.972;5.682;2023-08-17T12:18:10;24.4;57.4
78448;SHT31;67742;51.972;5.682;2023-08-17T12:20:42;24.4;57.4
78448;SHT31;67742;51.972;5.682;2023-08-17T12:23:10;24.4;57.3
78448;SHT31;67742;51.972;5.682;2023-08-17T12:25:39;24.4;57.3
78448;SHT31;67742;51.972;5.682;2023-08-17T12:28:07;24.4;57.5
78448;SHT31;67742;51.972;5.682;2023-08-17T12:30:36;24.4;56.8
78448;SHT31;67742;51.972;5.682;2023-08-17T12:33:06;24.4;57.1
78448;SHT31;67742;51.972;5.682;2023-08-17T12:35:34;24.4;57.2
78448;SHT31;67742;51.972;5.682;2023-08-17T12:38:05;24.5;57.2
78448;SHT31;67742;51.972;5.682;2023-08-17T12:40:36;24.5;57.4
78448;SHT31;67742;51.972;5.682;2023-08-17T12:43:05;24.5;57.2
78448;SHT31;67742;51.972;5.682;2023-08-17T12:45:34;24.5;57.3
78448;SHT31;67742;51.972;5.682;2023-08-17T12:48:05;24.5;57.9
78448;SHT31;67742;51.972;5.682;2023-08-17T12:50:34;24.5;57.7
78448;SHT31;67742;51.972;5.682;2023-08-17T12:53:03;24.5;57.6
78448;SHT31;67742;51.972;5.682;2023-08-17T12:55:32;24.6;57.6
78448;SHT31;67742;51.972;5.682;2023-08-17T12:58:01;24.6;58.1
78448;SHT31;67742;51.972;5.682;2023-08-17T13:00:30;24.6;57.8
78448;SHT31;67742;51.972;5.682;2023-08-17T13:02:59;24.6;57.7
78448;SHT31;67742;51.972;5.682;2023-08-17T13:05:28;24.7;56.9
78448;SHT31;67742;51.972;5.682;2023-08-17T13:07:57;24.7;57.1
78448;SHT31;67742;51.972;5.682;2023-08-17T13:10:25;24.7;57.1
78448;SHT31;67742;51.972;5.682;2023-08-17T13:12:54;24.7;57.3
78448;SHT31;67742;51.972;5.682;2023-08-17T13:15:25;24.7;57.1
78448;SHT31;67742;51.972;5.682;2023-08-17T13:17:54;24.7;57.4
78448;SHT31;67742;51.972;5.682;2023-08-17T13:20:23;24.7;57.4
78448;SHT31;67742;51.972;5.682;2023-08-17T13:22:52;24.7;57.2
78448;SHT31;67742;51.972;5.682;2023-08-17T13:25:20;24.7;57.0
78448;SHT31;67742;51.972;5.682;2023-08-17T13:27:49;24.7;56.7
78448;SHT31;67742;51.972;5.682;2023-08-17T13:30:17;24.7;57.0
78448;SHT31;67742;51.972;5.682;2023-08-17T13:32:47;24.7;56.2
78448;SHT31;67742;51.972;5.682;2023-08-17T13:35:15;24.7;56.8
78448;SHT31;67742;51.972;5.682;2023-08-17T13:37:43;24.7;56.8
78448;SHT31;67742;51.972;5.682;2023-08-17T13:40:15;24.7;56.9
78448;SHT31;67742;51.972;5.682;2023-08-17T13:42:43;24.7;56.9
78448;SHT31;67742;51.972;5.682;2023-08-17T13:45:12;24.7;56.9
78448;SHT31;67742;51.972;5.682;2023-08-17T13:47:41;24.7;56.9
78448;SHT31;67742;51.972;5.682;2023-08-17T13:50:10;24.6;56.9
78448;SHT31;67742;51.972;5.682;2023-08-17T13:52:40;24.6;56.9
78448;SHT31;67742;51.972;5.682;2023-08-17T13:55:11;24.6;56.9
78448;SHT31;67742;51.972;5.682;2023-08-17T13:57:40;24.6;57.1
78448;SHT31;67742;51.972;5.682;2023-08-17T14:00:09;24.6;57.4
78448;SHT31;67742;51.972;5.682;2023-08-17T14:02:38;24.6;57.2
78448;SHT31;67742;51.972;5.682;2023-08-17T14:05:08;24.5;57.0
78448;SHT31;67742;51.972;5.682;2023-08-17T14:07:38;24.5;57.2
78448;SHT31;67742;51.972;5.682;2023-08-17T14:10:08;24.5;57.2
78448;SHT31;67742;51.972;5.682;2023-08-17T14:12:37;24.5;57.5
78448;SHT31;67742;51.972;5.682;2023-08-17T14:15:07;24.5;57.7
78448;SHT31;67742;51.972;5.682;2023-08-17T14:17:37;24.5;57.7
78448;SHT31;67742;51.972;5.682;2023-08-17T14:20:07;24.5;57.8
78448;SHT31;67742;51.972;5.682;2023-08-17T14:22:36;24.5;57.8
78448;SHT31;67742;51.972;5.682;2023-08-17T14:25:06;24.4;57.7
78448;SHT31;67742;51.972;5.682;2023-08-17T14:27:35;24.4;57.9
78448;SHT31;67742;51.972;5.682;2023-08-17T14:30:04;24.4;58.2
78448;SHT31;67742;51.972;5.682;2023-08-17T14:32:33;24.4;58.2
78448;SHT31;67742;51.972;5.682;2023-08-17T14:35:02;24.4;58.4
78448;SHT31;67742;51.972;5.682;2023-08-17T14:37:31;24.4;58.3
78448;SHT31;67742;51.972;5.682;2023-08-17T14:40:00;24.4;58.5
78448;SHT31;67742;51.972;5.682;2023-08-17T14:42:29;24.4;58.4
78448;SHT31;67742;51.972;5.682;2023-08-17T14:44:57;24.4;58.3
78448;SHT31;67742;51.972;5.682;2023-08-17T14:47:26;24.4;58.5
78448;SHT31;67742;51.972;5.682;2023-08-17T14:49:54;24.3;58.8
78448;SHT31;67742;51.972;5.682;2023-08-17T14:52:23;24.3;59.0
78448;SHT31;67742;51.972;5.682;2023-08-17T14:54:52;24.3;59.0
78448;SHT31;67742;51.972;5.682;2023-08-17T14:57:21;24.3;59.0
78448;SHT31;67742;51.972;5.682;2023-08-17T14:59:49;24.3;58.8
78448;SHT31;67742;51.972;5.682;2023-08-17T15:02:18;24.3;58.9
78448;SHT31;67742;51.972;5.682;2023-08-17T15:04:47;24.3;58.8
78448;SHT31;67742;51.972;5.682;2023-08-17T15:07:15;24.3;59.2
78448;SHT31;67742;51.972;5.682;2023-08-17T15:09:44;24.4;59.1
78448;SHT31;67742;51.972;5.682;2023-08-17T15:12:12;24.4;59.3
78448;SHT31;67742;51.972;5.682;2023-08-17T15:14:41;24.4;59.2
78448;SHT31;67742;51.972;5.682;2023-08-17T15:17:09;24.4;59.0
78448;SHT31;67742;51.972;5.682;2023-08-17T15:19:39;24.3;58.6
78448;SHT31;67742;51.972;5.682;2023-08-17T15:22:07;24.3;58.8
78448;SHT31;67742;51.972;5.682;2023-08-17T15:24:36;24.3;58.9
78448;SHT31;67742;51.972;5.682;2023-08-17T15:27:05;24.3;58.8
78448;SHT31;67742;51.972;5.682;2023-08-17T15:29:33;24.3;59.1
78448;SHT31;67742;51.972;5.682;2023-08-17T15:32:02;24.3;59.4
78448;SHT31;67742;51.972;5.682;2023-08-17T15:34:30;24.2;59.5
78448;SHT31;67742;51.972;5.682;2023-08-17T15:36:59;24.2;59.7
78448;SHT31;67742;51.972;5.682;2023-08-17T15:39:28;24.2;60.0
78448;SHT31;67742;51.972;5.682;2023-08-17T15:41:57;24.2;59.8
78448;SHT31;67742;51.972;5.682;2023-08-17T15:44:26;24.2;59.7
78448;SHT31;67742;51.972;5.682;2023-08-17T15:46:56;24.2;59.7
78448;SHT31;67742;51.972;5.682;2023-08-17T15:49:28;24.2;59.8
78448;SHT31;67742;51.972;5.682;2023-08-17T15:51:56;24.2;59.9
78448;SHT31;67742;51.972;5.682;2023-08-17T15:54:25;24.2;59.6
78448;SHT31;67742;51.972;5.682;2023-08-17T15:56:54;24.2;59.7
78448;SHT31;67742;51.972;5.682;2023-08-17T15:59:22;24.2;59.8
78448;SHT31;67742;51.972;5.682;2023-08-17T16:01:51;24.3;59.8
78448;SHT31;67742;51.972;5.682;2023-08-17T16:04:19;24.3;59.8
78448;SHT31;67742;51.972;5.682;2023-08-17T16:06:48;24.3;60.0
78448;SHT31;67742;51.972;5.682;2023-08-17T16:09:19;24.3;60.0
78448;SHT31;67742;51.972;5.682;2023-08-17T16:11:48;24.3;60.3
78448;SHT31;67742;51.972;5.682;2023-08-17T16:14:17;24.3;59.8
78448;SHT31;67742;51.972;5.682;2023-08-17T16:16:45;24.4;59.7
78448;SHT31;67742;51.972;5.682;2023-08-17T16:19:14;24.4;59.9